sensor_id;sensor_type;location;lat;lon;timestamp;temperature;humidity
20141;DHT22;10231;47.702;9.826;2023-08-30T00:00:40;12.00;99.90
20141;DHT22;10231;47.702;9.826;2023-08-30T00:03:05;12.00;99.90
20141;DHT22;10231;47.702;9.826;2023-08-30T00:05:32;12.00;99.90
20141;DHT22;10231;47.702;9.826;2023-08-30T00:07:57;12.00;99.90
20141;DHT22;10231;47.702;9.826;2023-08-30T00:10:23;12.00;99.90
20141;DHT22;10231;47.702;9.826;2023-08-30T00:12:49;12.00;99.90
20141;DHT22;10231;47.702;9.826;2023-08-30T00:15:14;12.00;99.90
20141;DHT22;10231;47.702;9.826;2023-08-30T00:17:40;12.00;99.90
20141;DHT22;10231;47.702;9.826;2023-08-30T00:20:06;12.00;99.90
20141;DHT22;10231;47.702;9.826;2023-08-30T00:22:32;12.00;99.90
20141;DHT22;10231;47.702;9.826;2023-08-30T00:24:58;12.00;99.90
20141;DHT22;10231;47.702;9.826;2023-08-30T00:27:24;12.00;99.90
20141;DHT22;10231;47.702;9.826;2023-08-30T00:29:50;11.90;99.90
20141;DHT22;10231;47.702;9.826;2023-08-30T00:32:15;11.90;99.90
20141;DHT22;10231;47.702;9.826;2023-08-30T00:34:41;12.00;99.90
20141;DHT22;10231;47.702;9.826;2023-08-30T00:37:06;12.00;99.90
20141;DHT22;10231;47.702;9.826;2023-08-30T00:39:32;12.00;99.90
20141;DHT22;10231;47.702;9.826;2023-08-30T00:41:57;12.00;99.90
20141;DHT22;10231;47.702;9.826;2023-08-30T00:44:24;12.00;99.90
20141;DHT22;10231;47.702;9.826;2023-08-30T00:46:50;12.00;99.90
20141;DHT22;10231;47.702;9.826;2023-08-30T00:49:15;12.00;99.90
20141;DHT22;10231;47.702;9.826;2023-08-30T00:51:41;12.00;99.90
20141;DHT22;10231;47.702;9.826;2023-08-30T00:54:07;12.10;99.90
20141;DHT22;10231;47.702;9.826;2023-08-30T00:56:33;12.10;99.90
20141;DHT22;10231;47.702;9.826;2023-08-30T00:58:59;12.10;99.90
20141;DHT22;10231;47.702;9.826;2023-08-30T01:01:25;12.10;99.90
20141;DHT22;10231;47.702;9.826;2023-08-30T01:03:51;12.10;99.90
20141;DHT22;10231;47.702;9.826;2023-08-30T01:06:16;12.10;99.90
20141;DHT22;10231;47.702;9.826;2023-08-30T01:08:42;12.10;99.90
20141;DHT22;10231;47.702;9.826;2023-08-30T01:11:17;12.10;99.90
20141;DHT22;10231;47.702;9.826;2023-08-30T01:14:13;12.10;99.90
20141;DHT22;10231;47.702;9.826;2023-08-30T01:16:38;12.10;99.90
20141;DHT22;10231;47.702;9.826;2023-08-30T01:27:40;12.20;99.90
20141;DHT22;10231;47.702;9.826;2023-08-30T01:30:07;12.20;99.90
20141;DHT22;10231;47.702;9.826;2023-08-30T01:32:34;12.20;99.90
20141;DHT22;10231;47.702;9.826;2023-08-30T01:35:00;12.20;99.90
20141;DHT22;10231;47.702;9.826;2023-08-30T01:37:27;12.10;99.90
20141;DHT22;10231;47.702;9.826;2023-08-30T01:39:54;12.20;99.90
20141;DHT22;10231;47.702;9.826;2023-08-30T01:42:23;12.20;99.90
20141;DHT22;10231;47.702;9.826;2023-08-30T01:44:50;12.20;99.90
20141;DHT22;10231;47.702;9.826;2023-08-30T01:47:18;12.10;99.90
20141;DHT22;10231;47.702;9.826;2023-08-30T01:49:44;12.10;99.90
20141;DHT22;10231;47.702;9.826;2023-08-30T01:52:10;12.10;99.90
20141;DHT22;10231;47.702;9.826;2023-08-30T01:54:37;12.20;99.90
20141;DHT22;10231;47.702;9.826;2023-08-30T01:57:05;12.10;99.90
20141;DHT22;10231;47.702;9.826;2023-08-30T01:59:31;12.10;99.90
20141;DHT22;10231;47.702;9.826;2023-08-30T02:01:56;12.10;99.90
20141;DHT22;10231;47.702;9.826;2023-08-30T02:04:22;12.10;99.90
20141;DHT22;10231;47.702;9.826;2023-08-30T02:07:03;12.10;99.90
20141;DHT22;10231;47.702;9.826;2023-08-30T02:09:40;12.10;99.90
20141;DHT22;10231;47.702;9.826;2023-08-30T02:12:12;12.10;99.90
20141;DHT22;10231;47.702;9.826;2023-08-30T02:14:39;12.00;99.90
20141;DHT22;10231;47.702;9.826;2023-08-30T02:17:06;12.00;99.90
20141;DHT22;10231;47.702;9.826;2023-08-30T02:19:33;12.10;99.90
20141;DHT22;10231;47.702;9.826;2023-08-30T02:21:59;12.00;99.90
20141;DHT22;10231;47.702;9.826;2023-08-30T02:24:24;12.10;99.90
20141;DHT22;10231;47.702;9.826;2023-08-30T02:26:50;12.10;99.90
20141;DHT22;10231;47.702;9.826;2023-08-30T02:29:16;12.10;99.90
20141;DHT22;10231;47.702;9.826;2023-08-30T02:31:41;12.10;99.90
20141;DHT22;10231;47.702;9.826;2023-08-30T02:34:07;12.10;99.90
20141;DHT22;10231;47.702;9.826;2023-08-30T02:36:32;12.10;99.90
20141;DHT22;10231;47.702;9.826;2023-08-30T02:38:58;12.00;99.90
20141;DHT22;10231;47.702;9.826;2023-08-30T02:41:23;12.10;99.90
20141;DHT22;10231;47.702;9.826;2023-08-30T02:43:49;12.10;99.90
20141;DHT22;10231;47.702;9.826;2023-08-30T02:46:14;12.10;99.90
20141;DHT22;10231;47.702;9.826;2023-08-30T02:48:40;12.10;99.90
20141;DHT22;10231;47.702;9.826;2023-08-30T02:51:06;12.10;99.90
20141;DHT22;10231;47.702;9.826;2023-08-30T02:53:31;12.10;99.90
20141;DHT22;10231;47.702;9.826;2023-08-30T02:55:57;12.10;99.90
20141;DHT22;10231;47.702;9.826;2023-08-30T02:58:22;12.10;99.90
20141;DHT22;10231;47.702;9.826;2023-08-30T03:00:48;12.10;99.90
20141;DHT22;10231;47.702;9.826;2023-08-30T03:03:14;12.10;99.90
20141;DHT22;10231;47.702;9.826;2023-08-30T03:05:39;12.20;99.90
20141;DHT22;10231;47.702;9.826;2023-08-30T03:08:05;12.20;99.90
20141;DHT22;10231;47.702;9.826;2023-08-30T03:10:31;12.20;99.90
20141;DHT22;10231;47.702;9.826;2023-08-30T03:12:57;12.20;99.90
20141;DHT22;10231;47.702;9.826;2023-08-30T03:15:23;12.10;99.90
20141;DHT22;10231;47.702;9.826;2023-08-30T03:17:48;12.10;99.90
20141;DHT22;10231;47.702;9.826;2023-08-30T03:20:14;12.10;99.90
20141;DHT22;10231;47.702;9.826;2023-08-30T03:22:40;12.10;99.90
20141;DHT22;10231;47.702;9.826;2023-08-30T03:25:05;12.10;99.90
20141;DHT22;10231;47.702;9.826;2023-08-30T03:27:32;12.10;99.90
20141;DHT22;10231;47.702;9.826;2023-08-30T03:29:58;12.10;99.90
20141;DHT22;10231;47.702;9.826;2023-08-30T03:32:24;12.10;99.90
20141;DHT22;10231;47.702;9.826;2023-08-30T03:34:49;12.20;99.90
20141;DHT22;10231;47.702;9.826;2023-08-30T03:37:16;12.10;99.90
20141;DHT22;10231;47.702;9.826;2023-08-30T03:39:42;12.10;99.90
20141;DHT22;10231;47.702;9.826;2023-08-30T03:42:07;12.10;99.90
20141;DHT22;10231;47.702;9.826;2023-08-30T03:44:33;12.10;99.90
20141;DHT22;10231;47.702;9.826;2023-08-30T03:46:59;12.10;99.90
20141;DHT22;10231;47.702;9.826;2023-08-30T03:49:24;12.10;99.90
20141;DHT22;10231;47.702;9.826;2023-08-30T03:51:50;12.10;99.90
20141;DHT22;10231;47.702;9.826;2023-08-30T03:54:15;12.10;99.90
20141;DHT22;10231;47.702;9.826;2023-08-30T03:56:44;12.10;99.90
20141;DHT22;10231;47.702;9.826;2023-08-30T03:59:11;12.10;99.90
20141;DHT22;10231;47.702;9.826;2023-08-30T04:01:36;12.20;99.90
20141;DHT22;10231;47.702;9.826;2023-08-30T04:04:02;12.20;99.90
20141;DHT22;10231;47.702;9.826;2023-08-30T04:06:28;12.20;99.90
20141;DHT22;10231;47.702;9.826;2023-08-30T04:08:53;12.20;99.90
20141;DHT22;10231;47.702;9.826;2023-08-30T04:11:19;12.20;99.90
20141;DHT22;10231;47.702;9.826;2023-08-30T04:13:45;12.20;99.90
20141;DHT22;10231;47.702;9.826;2023-08-30T04:16:10;12.20;99.90
20141;DHT22;10231;47.702;9.826;2023-08-30T04:18:36;12.20;99.90
20141;DHT22;10231;47.702;9.826;2023-08-30T04:21:02;12.20;99.90
20141;DHT22;10231;47.702;9.826;2023-08-30T04:23:28;12.20;99.90
20141;DHT22;10231;47.702;9.826;2023-08-30T04:25:54;12.20;99.90
20141;DHT22;10231;47.702;9.826;2023-08-30T04:28:20;12.10;99.90
20141;DHT22;10231;47.702;9.826;2023-08-30T04:30:46;12.10;99.90
20141;DHT22;10231;47.702;9.826;2023-08-30T04:33:11;12.10;99.90
20141;DHT22;10231;47.702;9.826;2023-08-30T04:35:37;12.00;99.90
20141;DHT22;10231;47.702;9.826;2023-08-30T04:38:03;12.10;99.90
20141;DHT22;10231;47.702;9.826;2023-08-30T04:40:29;12.10;99.90
20141;DHT22;10231;47.702;9.826;2023-08-30T04:42:56;12.00;99.90
20141;DHT22;10231;47.702;9.826;2023-08-30T04:45:22;12.00;99.90
20141;DHT22;10231;47.702;9.826;2023-08-30T04:47:47;12.00;99.90
20141;DHT22;10231;47.702;9.826;2023-08-30T04:50:13;12.00;99.90
20141;DHT22;10231;47.702;9.826;2023-08-30T04:52:39;12.00;99.90
20141;DHT22;10231;47.702;9.826;2023-08-30T04:55:05;12.00;99.90
20141;DHT22;10231;47.702;9.826;2023-08-30T04:57:30;12.10;99.90
20141;DHT22;10231;47.702;9.826;2023-08-30T04:59:57;12.10;99.90
20141;DHT22;10231;47.702;9.826;2023-08-30T05:02:22;12.10;99.90
20141;DHT22;10231;47.702;9.826;2023-08-30T05:04:48;12.20;99.90
20141;DHT22;10231;47.702;9.826;2023-08-30T05:07:14;12.10;99.90
20141;DHT22;10231;47.702;9.826;2023-08-30T05:09:39;12.10;99.90
20141;DHT22;10231;47.702;9.826;2023-08-30T05:12:06;12.10;99.90
20141;DHT22;10231;47.702;9.826;2023-08-30T05:14:32;12.10;99.90
20141;DHT22;10231;47.702;9.826;2023-08-30T05:16:57;12.10;99.90
20141;DHT22;10231;47.702;9.826;2023-08-30T05:19:23;12.10;99.90
20141;DHT22;10231;47.702;9.826;2023-08-30T05:21:48;12.10;99.90
20141;DHT22;10231;47.702;9.826;2023-08-30T05:24:17;12.10;99.90
20141;DHT22;10231;47.702;9.826;2023-08-30T05:26:42;12.20;99.90
20141;DHT22;10231;47.702;9.826;2023-08-30T05:29:08;12.20;99.90
20141;DHT22;10231;47.702;9.826;2023-08-30T05:31:34;12.20;99.90
20141;DHT22;10231;47.702;9.826;2023-08-30T05:33:59;12.20;99.90
20141;DHT22;10231;47.702;9.826;2023-08-30T05:36:25;12.20;99.90
20141;DHT22;10231;47.702;9.826;2023-08-30T05:38:50;12.10;99.90
20141;DHT22;10231;47.702;9.826;2023-08-30T05:41:16;12.20;99.90
20141;DHT22;10231;47.702;9.826;2023-08-30T05:43:42;12.20;99.90
20141;DHT22;10231;47.702;9.826;2023-08-30T05:46:07;12.30;99.90
20141;DHT22;10231;47.702;9.826;2023-08-30T05:48:39;12.30;99.90
20141;DHT22;10231;47.702;9.826;2023-08-30T05:51:05;12.40;99.90
20141;DHT22;10231;47.702;9.826;2023-08-30T05:53:30;12.40;99.90
20141;DHT22;10231;47.702;9.826;2023-08-30T05:55:56;12.40;99.90
20141;DHT22;10231;47.702;9.826;2023-08-30T05:58:22;12.40;99.90
20141;DHT22;10231;47.702;9.826;2023-08-30T06:00:47;12.40;99.90
20141;DHT22;10231;47.702;9.826;2023-08-30T06:03:13;12.50;99.90
20141;DHT22;10231;47.702;9.826;2023-08-30T06:05:38;12.50;99.90
20141;DHT22;10231;47.702;9.826;2023-08-30T06:08:04;12.50;99.90
20141;DHT22;10231;47.702;9.826;2023-08-30T06:10:29;12.50;99.90
20141;DHT22;10231;47.702;9.826;2023-08-30T06:12:55;12.50;99.90
20141;DHT22;10231;47.702;9.826;2023-08-30T06:15:20;12.50;99.90
20141;DHT22;10231;47.702;9.826;2023-08-30T06:17:46;12.50;99.90
20141;DHT22;10231;47.702;9.826;2023-08-30T06:20:12;12.60;99.90
20141;DHT22;10231;47.702;9.826;2023-08-30T06:22:38;12.60;99.90
20141;DHT22;10231;47.702;9.826;2023-08-30T06:25:04;12.70;99.90
20141;DHT22;10231;47.702;9.826;2023-08-30T06:27:32;12.70;99.90
20141;DHT22;10231;47.702;9.826;2023-08-30T06:29:57;12.70;99.90
20141;DHT22;10231;47.702;9.826;2023-08-30T06:32:23;12.80;99.90
20141;DHT22;10231;47.702;9.826;2023-08-30T06:34:49;12.80;99.90
20141;DHT22;10231;47.702;9.826;2023-08-30T06:37:14;12.80;99.90
20141;DHT22;10231;47.702;9.826;2023-08-30T06:39:40;12.80;99.90
20141;DHT22;10231;47.702;9.826;2023-08-30T06:42:05;12.80;99.90
20141;DHT22;10231;47.702;9.826;2023-08-30T06:44:31;12.80;99.90
20141;DHT22;10231;47.702;9.826;2023-08-30T06:46:57;12.80;99.90
20141;DHT22;10231;47.702;9.826;2023-08-30T06:49:23;12.90;99.90
20141;DHT22;10231;47.702;9.826;2023-08-30T06:51:49;12.90;99.90
20141;DHT22;10231;47.702;9.826;2023-08-30T06:54:14;13.00;99.90
20141;DHT22;10231;47.702;9.826;2023-08-30T06:56:40;13.00;99.90
20141;DHT22;10231;47.702;9.826;2023-08-30T06:59:06;13.00;99.90
20141;DHT22;10231;47.702;9.826;2023-08-30T07:01:31;13.00;99.90
20141;DHT22;10231;47.702;9.826;2023-08-30T07:03:57;13.00;99.90
20141;DHT22;10231;47.702;9.826;2023-08-30T07:06:22;13.10;99.90
20141;DHT22;10231;47.702;9.826;2023-08-30T07:08:48;13.10;99.90
20141;DHT22;10231;47.702;9.826;2023-08-30T07:11:14;13.20;99.90
20141;DHT22;10231;47.702;9.826;2023-08-30T07:13:39;13.30;99.90
20141;DHT22;10231;47.702;9.826;2023-08-30T07:16:05;13.30;99.90
20141;DHT22;10231;47.702;9.826;2023-08-30T07:18:30;13.40;99.90
20141;DHT22;10231;47.702;9.826;2023-08-30T07:20:56;13.40;99.90
20141;DHT22;10231;47.702;9.826;2023-08-30T07:23:21;13.50;99.90
20141;DHT22;10231;47.702;9.826;2023-08-30T07:25:47;13.50;99.90
20141;DHT22;10231;47.702;9.826;2023-08-30T07:28:12;13.50;99.90
20141;DHT22;10231;47.702;9.826;2023-08-30T07:30:38;13.60;99.90
20141;DHT22;10231;47.702;9.826;2023-08-30T07:33:04;13.60;99.90
20141;DHT22;10231;47.702;9.826;2023-08-30T07:35:30;13.60;99.90
20141;DHT22;10231;47.702;9.826;2023-08-30T07:37:56;13.70;99.90
20141;DHT22;10231;47.702;9.826;2023-08-30T07:40:22;13.70;99.90
20141;DHT22;10231;47.702;9.826;2023-08-30T07:42:51;13.70;99.90
20141;DHT22;10231;47.702;9.826;2023-08-30T07:45:17;13.80;99.90
20141;DHT22;10231;47.702;9.826;2023-08-30T07:47:43;13.80;99.90
20141;DHT22;10231;47.702;9.826;2023-08-30T07:50:09;13.80;99.90
20141;DHT22;10231;47.702;9.826;2023-08-30T07:52:34;13.90;99.90
20141;DHT22;10231;47.702;9.826;2023-08-30T07:55:00;13.90;99.90
20141;DHT22;10231;47.702;9.826;2023-08-30T07:57:25;13.90;99.90
20141;DHT22;10231;47.702;9.826;2023-08-30T07:59:51;13.90;99.90
20141;DHT22;10231;47.702;9.826;2023-08-30T08:02:16;13.90;99.90
20141;DHT22;10231;47.702;9.826;2023-08-30T08:04:42;14.00;99.90
20141;DHT22;10231;47.702;9.826;2023-08-30T08:07:08;14.00;99.90
20141;DHT22;10231;47.702;9.826;2023-08-30T08:09:33;14.00;99.90
20141;DHT22;10231;47.702;9.826;2023-08-30T08:11:59;14.00;99.90
20141;DHT22;10231;47.702;9.826;2023-08-30T08:14:25;14.00;99.90
20141;DHT22;10231;47.702;9.826;2023-08-30T08:16:50;14.10;99.90
20141;DHT22;10231;47.702;9.826;2023-08-30T08:19:16;14.10;99.90
20141;DHT22;10231;47.702;9.826;2023-08-30T08:21:42;14.20;99.90
20141;DHT22;10231;47.702;9.826;2023-08-30T08:24:07;14.20;99.90
20141;DHT22;10231;47.702;9.826;2023-08-30T08:26:33;14.20;99.90
20141;DHT22;10231;47.702;9.826;2023-08-30T08:28:59;14.20;99.90
20141;DHT22;10231;47.702;9.826;2023-08-30T08:31:24;14.30;99.90
20141;DHT22;10231;47.702;9.826;2023-08-30T08:34:04;14.30;99.90
20141;DHT22;10231;47.702;9.826;2023-08-30T08:36:30;14.30;99.90
20141;DHT22;10231;47.702;9.826;2023-08-30T08:38:55;14.40;99.90
20141;DHT22;10231;47.702;9.826;2023-08-30T08:41:22;14.40;99.90
20141;DHT22;10231;47.702;9.826;2023-08-30T08:43:52;14.40;99.90
20141;DHT22;10231;47.702;9.826;2023-08-30T08:46:19;14.40;99.90
20141;DHT22;10231;47.702;9.826;2023-08-30T08:48:46;14.50;99.90
20141;DHT22;10231;47.702;9.826;2023-08-30T08:51:13;14.60;99.90
20141;DHT22;10231;47.702;9.826;2023-08-30T08:53:39;14.70;99.90
20141;DHT22;10231;47.702;9.826;2023-08-30T08:56:06;14.80;99.90
20141;DHT22;10231;47.702;9.826;2023-08-30T08:58:35;14.80;99.90
20141;DHT22;10231;47.702;9.826;2023-08-30T09:01:03;14.90;99.90
20141;DHT22;10231;47.702;9.826;2023-08-30T09:03:29;14.90;99.90
20141;DHT22;10231;47.702;9.826;2023-08-30T09:05:55;14.90;99.90
20141;DHT22;10231;47.702;9.826;2023-08-30T09:08:21;15.00;99.90
20141;DHT22;10231;47.702;9.826;2023-08-30T09:10:47;15.00;99.90
20141;DHT22;10231;47.702;9.826;2023-08-30T09:13:16;15.00;99.90
20141;DHT22;10231;47.702;9.826;2023-08-30T09:15:41;15.00;99.90
20141;DHT22;10231;47.702;9.826;2023-08-30T09:18:16;15.00;99.90
20141;DHT22;10231;47.702;9.826;2023-08-30T09:20:42;15.00;99.90
20141;DHT22;10231;47.702;9.826;2023-08-30T09:23:21;14.90;99.90
20141;DHT22;10231;47.702;9.826;2023-08-30T09:25:47;14.80;99.90
20141;DHT22;10231;47.702;9.826;2023-08-30T09:28:12;14.80;99.90
20141;DHT22;10231;47.702;9.826;2023-08-30T09:30:39;14.80;99.90
20141;DHT22;10231;47.702;9.826;2023-08-30T09:33:05;14.80;99.90
20141;DHT22;10231;47.702;9.826;2023-08-30T09:35:31;14.80;99.90
20141;DHT22;10231;47.702;9.826;2023-08-30T09:37:57;14.80;99.90
20141;DHT22;10231;47.702;9.826;2023-08-30T09:40:22;14.80;99.90
20141;DHT22;10231;47.702;9.826;2023-08-30T09:42:48;14.80;99.90
20141;DHT22;10231;47.702;9.826;2023-08-30T09:45:18;14.90;99.90
20141;DHT22;10231;47.702;9.826;2023-08-30T09:47:47;14.90;99.90
20141;DHT22;10231;47.702;9.826;2023-08-30T09:50:16;14.90;99.90
20141;DHT22;10231;47.702;9.826;2023-08-30T09:52:42;15.00;99.90
20141;DHT22;10231;47.702;9.826;2023-08-30T09:55:09;15.10;99.90
20141;DHT22;10231;47.702;9.826;2023-08-30T09:57:35;15.20;99.90
20141;DHT22;10231;47.702;9.826;2023-08-30T10:00:01;15.20;99.90
20141;DHT22;10231;47.702;9.826;2023-08-30T10:02:30;15.30;99.90
20141;DHT22;10231;47.702;9.826;2023-08-30T10:04:56;15.50;99.90
20141;DHT22;10231;47.702;9.826;2023-08-30T10:07:23;15.60;99.90
20141;DHT22;10231;47.702;9.826;2023-08-30T10:09:51;15.60;99.90
20141;DHT22;10231;47.702;9.826;2023-08-30T10:12:20;15.70;99.90
20141;DHT22;10231;47.702;9.826;2023-08-30T10:14:47;15.80;99.90
20141;DHT22;10231;47.702;9.826;2023-08-30T10:17:14;15.80;99.90
20141;DHT22;10231;47.702;9.826;2023-08-30T10:19:43;15.90;99.90
20141;DHT22;10231;47.702;9.826;2023-08-30T10:22:10;15.80;99.90
20141;DHT22;10231;47.702;9.826;2023-08-30T10:25:01;15.80;99.90
20141;DHT22;10231;47.702;9.826;2023-08-30T10:27:31;15.80;99.90
20141;DHT22;10231;47.702;9.826;2023-08-30T10:29:59;15.60;99.90
20141;DHT22;10231;47.702;9.826;2023-08-30T10:32:25;15.60;99.90
20141;DHT22;10231;47.702;9.826;2023-08-30T10:34:51;15.50;99.90
20141;DHT22;10231;47.702;9.826;2023-08-30T10:37:23;15.50;99.90
20141;DHT22;10231;47.702;9.826;2023-08-30T10:39:49;15.50;99.90
20141;DHT22;10231;47.702;9.826;2023-08-30T10:42:16;15.60;99.90
20141;DHT22;10231;47.702;9.826;2023-08-30T10:44:56;15.50;99.90
20141;DHT22;10231;47.702;9.826;2023-08-30T10:49:49;15.60;99.90
20141;DHT22;10231;47.702;9.826;2023-08-30T10:52:15;15.70;99.90
20141;DHT22;10231;47.702;9.826;2023-08-30T10:54:40;15.70;99.90
20141;DHT22;10231;47.702;9.826;2023-08-30T10:57:13;15.70;99.90
20141;DHT22;10231;47.702;9.826;2023-08-30T10:59:39;15.70;99.90
20141;DHT22;10231;47.702;9.826;2023-08-30T11:02:06;15.80;99.90
20141;DHT22;10231;47.702;9.826;2023-08-30T11:04:31;15.70;99.90
20141;DHT22;10231;47.702;9.826;2023-08-30T11:06:57;15.80;99.90
20141;DHT22;10231;47.702;9.826;2023-08-30T11:09:24;15.80;99.90
20141;DHT22;10231;47.702;9.826;2023-08-30T11:11:51;15.90;99.90
20141;DHT22;10231;47.702;9.826;2023-08-30T11:14:18;15.90;99.90
20141;DHT22;10231;47.702;9.826;2023-08-30T11:16:44;15.90;99.90
20141;DHT22;10231;47.702;9.826;2023-08-30T11:19:11;16.00;99.90
20141;DHT22;10231;47.702;9.826;2023-08-30T11:21:39;16.10;99.90
20141;DHT22;10231;47.702;9.826;2023-08-30T11:24:06;16.20;99.90
20141;DHT22;10231;47.702;9.826;2023-08-30T11:26:31;16.30;99.90
20141;DHT22;10231;47.702;9.826;2023-08-30T11:28:57;16.40;99.90
20141;DHT22;10231;47.702;9.826;2023-08-30T11:31:26;16.40;99.90
20141;DHT22;10231;47.702;9.826;2023-08-30T11:33:53;16.40;99.90
20141;DHT22;10231;47.702;9.826;2023-08-30T11:36:22;16.40;99.90
20141;DHT22;10231;47.702;9.826;2023-08-30T11:38:49;16.30;99.90
20141;DHT22;10231;47.702;9.826;2023-08-30T11:41:15;16.20;99.90
20141;DHT22;10231;47.702;9.826;2023-08-30T11:43:40;16.30;99.90
20141;DHT22;10231;47.702;9.826;2023-08-30T11:46:06;16.30;99.90
20141;DHT22;10231;47.702;9.826;2023-08-30T11:48:32;16.30;99.90
20141;DHT22;10231;47.702;9.826;2023-08-30T11:50:59;16.30;99.90
20141;DHT22;10231;47.702;9.826;2023-08-30T11:53:25;16.40;99.90
20141;DHT22;10231;47.702;9.826;2023-08-30T11:55:51;16.40;99.90
20141;DHT22;10231;47.702;9.826;2023-08-30T11:58:20;16.50;99.90
20141;DHT22;10231;47.702;9.826;2023-08-30T12:00:48;16.50;99.90
20141;DHT22;10231;47.702;9.826;2023-08-30T12:03:14;16.40;99.90
20141;DHT22;10231;47.702;9.826;2023-08-30T12:05:48;16.30;99.90
20141;DHT22;10231;47.702;9.826;2023-08-30T12:08:27;16.30;99.90
20141;DHT22;10231;47.702;9.826;2023-08-30T12:10:55;16.30;99.90
20141;DHT22;10231;47.702;9.826;2023-08-30T12:13:25;16.40;99.90
20141;DHT22;10231;47.702;9.826;2023-08-30T12:15:51;16.60;99.90
20141;DHT22;10231;47.702;9.826;2023-08-30T12:18:21;16.60;99.90
20141;DHT22;10231;47.702;9.826;2023-08-30T12:20:54;16.60;99.90
20141;DHT22;10231;47.702;9.826;2023-08-30T12:23:24;16.70;99.90
20141;DHT22;10231;47.702;9.826;2023-08-30T12:26:06;16.70;99.90
20141;DHT22;10231;47.702;9.826;2023-08-30T12:28:34;16.80;99.90
20141;DHT22;10231;47.702;9.826;2023-08-30T12:31:01;16.80;99.90
20141;DHT22;10231;47.702;9.826;2023-08-30T12:33:27;16.80;99.90
20141;DHT22;10231;47.702;9.826;2023-08-30T12:35:54;16.80;99.90
20141;DHT22;10231;47.702;9.826;2023-08-30T12:38:20;16.80;99.90
20141;DHT22;10231;47.702;9.826;2023-08-30T12:40:47;16.90;99.90
20141;DHT22;10231;47.702;9.826;2023-08-30T12:43:13;16.90;99.90
20141;DHT22;10231;47.702;9.826;2023-08-30T12:45:40;16.90;99.90
20141;DHT22;10231;47.702;9.826;2023-08-30T12:48:07;16.90;99.90
20141;DHT22;10231;47.702;9.826;2023-08-30T12:50:33;17.00;99.90
20141;DHT22;10231;47.702;9.826;2023-08-30T12:52:58;17.10;99.90
20141;DHT22;10231;47.702;9.826;2023-08-30T12:55:24;17.10;99.90
20141;DHT22;10231;47.702;9.826;2023-08-30T12:57:49;17.10;99.90
20141;DHT22;10231;47.702;9.826;2023-08-30T13:00:15;17.30;99.90
20141;DHT22;10231;47.702;9.826;2023-08-30T13:02:40;17.40;99.90
20141;DHT22;10231;47.702;9.826;2023-08-30T13:05:06;17.50;99.90
20141;DHT22;10231;47.702;9.826;2023-08-30T13:07:32;17.50;99.90
20141;DHT22;10231;47.702;9.826;2023-08-30T13:09:58;17.60;99.90
20141;DHT22;10231;47.702;9.826;2023-08-30T13:12:24;17.60;99.90
20141;DHT22;10231;47.702;9.826;2023-08-30T13:14:49;17.50;99.90
20141;DHT22;10231;47.702;9.826;2023-08-30T13:17:15;17.50;99.90
20141;DHT22;10231;47.702;9.826;2023-08-30T13:19:43;17.40;99.90
20141;DHT22;10231;47.702;9.826;2023-08-30T13:22:09;17.60;99.90
20141;DHT22;10231;47.702;9.826;2023-08-30T13:24:35;17.80;99.90
20141;DHT22;10231;47.702;9.826;2023-08-30T13:27:01;17.90;99.90
20141;DHT22;10231;47.702;9.826;2023-08-30T13:29:27;18.10;99.90
20141;DHT22;10231;47.702;9.826;2023-08-30T13:31:52;18.20;99.90
20141;DHT22;10231;47.702;9.826;2023-08-30T13:34:18;18.20;99.90
20141;DHT22;10231;47.702;9.826;2023-08-30T13:36:43;18.20;99.90
20141;DHT22;10231;47.702;9.826;2023-08-30T13:39:09;18.30;99.90
20141;DHT22;10231;47.702;9.826;2023-08-30T13:41:34;18.40;99.90
20141;DHT22;10231;47.702;9.826;2023-08-30T13:44:01;18.50;99.90
20141;DHT22;10231;47.702;9.826;2023-08-30T13:46:29;18.60;99.90
20141;DHT22;10231;47.702;9.826;2023-08-30T13:48:55;18.70;99.90
20141;DHT22;10231;47.702;9.826;2023-08-30T13:51:22;18.70;99.90
20141;DHT22;10231;47.702;9.826;2023-08-30T13:53:48;18.60;99.90
20141;DHT22;10231;47.702;9.826;2023-08-30T13:56:13;18.70;99.90
20141;DHT22;10231;47.702;9.826;2023-08-30T13:58:39;18.70;99.90
20141;DHT22;10231;47.702;9.826;2023-08-30T14:01:05;18.70;99.90
20141;DHT22;10231;47.702;9.826;2023-08-30T14:03:30;18.80;99.90
20141;DHT22;10231;47.702;9.826;2023-08-30T14:05:56;18.90;99.90
20141;DHT22;10231;47.702;9.826;2023-08-30T14:08:22;18.90;99.90
20141;DHT22;10231;47.702;9.826;2023-08-30T14:10:47;19.00;99.90
20141;DHT22;10231;47.702;9.826;2023-08-30T14:13:13;19.00;99.90
20141;DHT22;10231;47.702;9.826;2023-08-30T14:15:38;19.00;99.90
20141;DHT22;10231;47.702;9.826;2023-08-30T14:18:04;19.00;99.90
20141;DHT22;10231;47.702;9.826;2023-08-30T14:20:30;19.00;99.90
20141;DHT22;10231;47.702;9.826;2023-08-30T14:22:55;19.20;99.90
20141;DHT22;10231;47.702;9.826;2023-08-30T14:25:21;19.30;99.90
20141;DHT22;10231;47.702;9.826;2023-08-30T14:27:46;19.40;99.90
20141;DHT22;10231;47.702;9.826;2023-08-30T14:30:12;19.40;99.90
20141;DHT22;10231;47.702;9.826;2023-08-30T14:32:37;19.40;99.90
20141;DHT22;10231;47.702;9.826;2023-08-30T14:35:04;19.40;99.90
20141;DHT22;10231;47.702;9.826;2023-08-30T14:37:29;19.60;99.90
20141;DHT22;10231;47.702;9.826;2023-08-30T14:39:55;19.80;99.90
20141;DHT22;10231;47.702;9.826;2023-08-30T14:42:20;19.90;99.90
20141;DHT22;10231;47.702;9.826;2023-08-30T14:44:49;19.90;99.90
20141;DHT22;10231;47.702;9.826;2023-08-30T14:47:16;19.90;99.90
20141;DHT22;10231;47.702;9.826;2023-08-30T14:49:42;20.00;99.90
20141;DHT22;10231;47.702;9.826;2023-08-30T14:52:07;20.20;99.90
20141;DHT22;10231;47.702;9.826;2023-08-30T14:54:33;20.30;99.90
20141;DHT22;10231;47.702;9.826;2023-08-30T14:56:59;20.30;99.90
20141;DHT22;10231;47.702;9.826;2023-08-30T14:59:24;20.40;99.90
20141;DHT22;10231;47.702;9.826;2023-08-30T15:01:49;20.60;99.90
20141;DHT22;10231;47.702;9.826;2023-08-30T15:04:15;20.50;99.90
20141;DHT22;10231;47.702;9.826;2023-08-30T15:06:40;20.80;99.90
20141;DHT22;10231;47.702;9.826;2023-08-30T15:09:06;20.70;99.90
20141;DHT22;10231;47.702;9.826;2023-08-30T15:11:31;20.70;99.90
20141;DHT22;10231;47.702;9.826;2023-08-30T15:13:57;20.70;99.90
20141;DHT22;10231;47.702;9.826;2023-08-30T15:16:22;20.90;99.90
20141;DHT22;10231;47.702;9.826;2023-08-30T15:18:48;21.00;99.90
20141;DHT22;10231;47.702;9.826;2023-08-30T15:21:14;21.20;99.90
20141;DHT22;10231;47.702;9.826;2023-08-30T15:23:39;21.00;99.90
20141;DHT22;10231;47.702;9.826;2023-08-30T15:26:05;21.10;99.90
20141;DHT22;10231;47.702;9.826;2023-08-30T15:28:31;21.30;99.90
20141;DHT22;10231;47.702;9.826;2023-08-30T15:30:56;21.40;99.90
20141;DHT22;10231;47.702;9.826;2023-08-30T15:33:22;21.00;99.90
20141;DHT22;10231;47.702;9.826;2023-08-30T15:35:50;20.60;99.90